createdAt,value
2024-05-09T00:00:06.000Z,78.02
2024-05-09T00:01:06.000Z,77.70
2024-05-09T00:02:05.000Z,78.44
2024-05-09T00:03:06.000Z,78.13
2024-05-09T00:04:06.000Z,77.99
2024-05-09T00:05:08.000Z,78.29
2024-05-09T00:06:07.000Z,78.42
2024-05-09T00:07:05.000Z,78.61
2024-05-09T00:08:07.000Z,79.34
2024-05-09T00:09:05.000Z,78.98
2024-05-09T00:10:06.000Z,78.63
2024-05-09T00:11:05.000Z,78.32
2024-05-09T00:12:05.000Z,78.54
2024-05-09T00:13:06.000Z,78.56
2024-05-09T00:14:05.000Z,78.69
2024-05-09T00:15:06.000Z,78.73
2024-05-09T00:16:06.000Z,78.79
2024-05-09T00:17:06.000Z,78.75
2024-05-09T00:18:06.000Z,79.00
2024-05-09T00:19:06.000Z,78.38
2024-05-09T00:20:06.000Z,78.73
2024-05-09T00:21:07.000Z,79.05
2024-05-09T00:22:06.000Z,78.66
2024-05-09T00:23:09.000Z,78.35
2024-05-09T00:24:05.000Z,78.58
2024-05-09T00:25:07.000Z,78.34
2024-05-09T00:26:06.000Z,78.27
2024-05-09T00:27:05.000Z,78.33
2024-05-09T00:28:06.000Z,78.31
2024-05-09T00:29:06.000Z,78.52
2024-05-09T00:30:07.000Z,77.99
2024-05-09T00:31:05.000Z,78.63
2024-05-09T00:32:06.000Z,78.47
2024-05-09T00:33:06.000Z,78.71
2024-05-09T00:34:06.000Z,78.90
2024-05-09T00:35:06.000Z,78.83
2024-05-09T00:36:06.000Z,78.48
2024-05-09T00:37:05.000Z,78.77
2024-05-09T00:38:06.000Z,78.85
2024-05-09T00:39:06.000Z,78.57
2024-05-09T00:40:06.000Z,78.60
2024-05-09T00:41:06.000Z,78.64
2024-05-09T00:42:06.000Z,78.67
2024-05-09T00:43:06.000Z,78.39
2024-05-09T00:44:06.000Z,78.59
2024-05-09T00:45:06.000Z,78.76
2024-05-09T00:46:08.000Z,78.66
2024-05-09T00:47:07.000Z,78.31
2024-05-09T00:48:08.000Z,78.68
2024-05-09T00:49:07.000Z,78.60
2024-05-09T00:50:06.000Z,78.50
2024-05-09T00:51:06.000Z,78.56
2024-05-09T00:52:06.000Z,78.65
2024-05-09T00:53:08.000Z,79.17
2024-05-09T00:54:06.000Z,80.09
2024-05-09T00:55:06.000Z,79.43
2024-05-09T00:56:07.000Z,79.06
2024-05-09T00:57:06.000Z,78.90
2024-05-09T00:58:08.000Z,78.87
2024-05-09T00:59:06.000Z,79.43
2024-05-09T01:00:09.000Z,79.15
2024-05-09T01:01:06.000Z,79.39
2024-05-09T01:02:06.000Z,79.02
2024-05-09T01:03:06.000Z,78.94
2024-05-09T01:04:06.000Z,79.08
2024-05-09T01:05:06.000Z,79.33
2024-05-09T01:06:06.000Z,79.71
2024-05-09T01:07:06.000Z,79.63
2024-05-09T01:08:06.000Z,79.21
2024-05-09T01:09:06.000Z,79.25
2024-05-09T01:10:06.000Z,79.21
2024-05-09T01:11:06.000Z,79.48
2024-05-09T01:12:06.000Z,79.22
2024-05-09T01:13:06.000Z,79.41
2024-05-09T01:14:06.000Z,79.55
2024-05-09T01:15:06.000Z,79.16
2024-05-09T01:16:06.000Z,79.03
2024-05-09T01:17:06.000Z,79.35
2024-05-09T01:18:08.000Z,79.46
2024-05-09T01:19:18.000Z,79.60
2024-05-09T01:20:06.000Z,79.88
2024-05-09T01:21:08.000Z,79.38
2024-05-09T01:22:06.000Z,79.69
2024-05-09T01:23:06.000Z,79.38
2024-05-09T01:24:06.000Z,79.32
2024-05-09T01:25:06.000Z,79.18
2024-05-09T01:26:06.000Z,79.16
2024-05-09T01:27:06.000Z,79.09
2024-05-09T01:28:06.000Z,79.14
2024-05-09T01:29:06.000Z,79.24
2024-05-09T01:30:06.000Z,79.11
2024-05-09T01:31:05.000Z,79.42
2024-05-09T01:32:05.000Z,79.13
2024-05-09T01:33:06.000Z,79.55
2024-05-09T01:34:05.000Z,79.58
2024-05-09T01:35:05.000Z,79.30
2024-05-09T01:36:05.000Z,79.28
2024-05-09T01:37:05.000Z,79.09
2024-05-09T01:38:06.000Z,79.07
2024-05-09T01:39:05.000Z,78.92
2024-05-09T01:40:06.000Z,78.96
2024-05-09T01:41:05.000Z,78.88
2024-05-09T01:42:05.000Z,78.96
2024-05-09T01:43:06.000Z,78.96
2024-05-09T01:44:05.000Z,79.02
2024-05-09T01:45:09.000Z,79.02
2024-05-09T01:46:11.000Z,79.01
2024-05-09T01:47:05.000Z,79.01
2024-05-09T01:48:07.000Z,78.87
2024-05-09T01:49:06.000Z,79.07
2024-05-09T01:50:06.000Z,78.89
2024-05-09T01:51:05.000Z,79.10
2024-05-09T01:52:05.000Z,79.24
2024-05-09T01:53:07.000Z,78.97
2024-05-09T01:54:05.000Z,78.89
2024-05-09T01:55:06.000Z,79.12
2024-05-09T01:56:06.000Z,79.18
2024-05-09T01:57:06.000Z,79.00
2024-05-09T01:58:06.000Z,78.84
2024-05-09T01:59:06.000Z,79.31
2024-05-09T02:00:06.000Z,79.12
2024-05-09T02:01:05.000Z,79.01
2024-05-09T02:02:05.000Z,79.14
2024-05-09T02:03:07.000Z,79.09
2024-05-09T02:04:05.000Z,79.11
2024-05-09T02:05:06.000Z,79.01
2024-05-09T02:06:05.000Z,78.99
2024-05-09T02:07:05.000Z,79.01
2024-05-09T02:08:12.000Z,78.82
2024-05-09T02:09:06.000Z,78.94
2024-05-09T02:10:05.000Z,78.88
2024-05-09T02:11:07.000Z,79.22
2024-05-09T02:12:05.000Z,79.04
2024-05-09T02:13:08.000Z,79.15
2024-05-09T02:14:05.000Z,78.93
2024-05-09T02:15:06.000Z,78.89
2024-05-09T02:16:09.000Z,79.68
2024-05-09T02:17:05.000Z,79.48
2024-05-09T02:18:06.000Z,79.14
2024-05-09T02:19:05.000Z,79.21
2024-05-09T02:20:06.000Z,79.68
2024-05-09T02:21:07.000Z,79.89
2024-05-09T02:22:05.000Z,79.50
2024-05-09T02:23:06.000Z,79.39
2024-05-09T02:24:05.000Z,79.67
2024-05-09T02:25:05.000Z,79.65
2024-05-09T02:26:05.000Z,79.52
2024-05-09T02:27:05.000Z,79.46
2024-05-09T02:28:05.000Z,79.66
2024-05-09T02:29:05.000Z,80.03
2024-05-09T02:30:06.000Z,79.80
2024-05-09T02:31:06.000Z,79.80
2024-05-09T02:32:06.000Z,79.56
2024-05-09T02:33:06.000Z,79.44
2024-05-09T02:34:06.000Z,79.97
2024-05-09T02:35:06.000Z,79.91
2024-05-09T02:36:06.000Z,79.58
2024-05-09T02:37:06.000Z,79.71
2024-05-09T02:38:07.000Z,79.60
2024-05-09T02:39:06.000Z,80.00
2024-05-09T02:40:07.000Z,79.72
2024-05-09T02:41:07.000Z,79.80
2024-05-09T02:42:06.000Z,79.90
2024-05-09T02:43:06.000Z,79.82
2024-05-09T02:44:06.000Z,80.35
2024-05-09T02:45:06.000Z,80.06
2024-05-09T02:46:06.000Z,79.86
2024-05-09T02:47:06.000Z,79.83
2024-05-09T02:48:08.000Z,80.10
2024-05-09T02:49:06.000Z,80.10
2024-05-09T02:50:06.000Z,80.03
2024-05-09T02:51:06.000Z,80.52
2024-05-09T02:52:06.000Z,80.05
2024-05-09T02:53:06.000Z,80.23
2024-05-09T02:54:06.000Z,80.14
2024-05-09T02:55:06.000Z,80.00
2024-05-09T02:56:06.000Z,80.54
2024-05-09T02:57:06.000Z,80.31
2024-05-09T02:58:06.000Z,80.37
2024-05-09T02:59:06.000Z,80.61
2024-05-09T03:00:06.000Z,80.19
2024-05-09T03:01:06.000Z,80.65
2024-05-09T03:02:05.000Z,80.41
2024-05-09T03:03:06.000Z,80.35
2024-05-09T03:04:05.000Z,80.22
2024-05-09T03:05:05.000Z,80.08
2024-05-09T03:06:05.000Z,80.51
2024-05-09T03:07:05.000Z,80.26
2024-05-09T03:08:05.000Z,80.34
2024-05-09T03:09:08.000Z,80.61
2024-05-09T03:10:06.000Z,80.90
2024-05-09T03:11:05.000Z,81.14
2024-05-09T03:12:06.000Z,80.90
2024-05-09T03:13:06.000Z,80.84
2024-05-09T03:14:06.000Z,80.63
2024-05-09T03:15:06.000Z,80.23
2024-05-09T03:16:06.000Z,80.31
2024-05-09T03:17:06.000Z,80.37
2024-05-09T03:18:05.000Z,80.45
2024-05-09T03:19:05.000Z,80.35
2024-05-09T03:20:06.000Z,80.28
2024-05-09T03:21:06.000Z,80.28
2024-05-09T03:22:05.000Z,80.07
2024-05-09T03:23:06.000Z,80.14
2024-05-09T03:24:06.000Z,80.11
2024-05-09T03:25:06.000Z,80.05
2024-05-09T03:26:13.000Z,79.94
2024-05-09T03:27:05.000Z,80.04
2024-05-09T03:28:06.000Z,79.50
2024-05-09T03:29:05.000Z,79.66
2024-05-09T03:30:06.000Z,80.30
2024-05-09T03:31:07.000Z,79.87
2024-05-09T03:32:05.000Z,79.92
2024-05-09T03:33:08.000Z,80.06
2024-05-09T03:34:05.000Z,79.93
2024-05-09T03:35:06.000Z,79.93
2024-05-09T03:36:06.000Z,79.95
2024-05-09T03:37:06.000Z,79.94
2024-05-09T03:38:05.000Z,80.03
2024-05-09T03:39:08.000Z,80.44
2024-05-09T03:40:07.000Z,80.30
2024-05-09T03:41:06.000Z,80.05
2024-05-09T03:42:05.000Z,80.29
2024-05-09T03:43:05.000Z,80.22
2024-05-09T03:44:06.000Z,80.28
2024-05-09T03:45:06.000Z,79.98
2024-05-09T03:46:05.000Z,80.20
2024-05-09T03:47:05.000Z,80.28
2024-05-09T03:48:06.000Z,80.00
2024-05-09T03:49:06.000Z,79.94
2024-05-09T03:50:06.000Z,80.46
2024-05-09T03:51:05.000Z,80.18
2024-05-09T03:52:05.000Z,80.18
2024-05-09T03:53:09.000Z,80.01
2024-05-09T03:54:05.000Z,80.08
2024-05-09T03:55:06.000Z,80.13
2024-05-09T03:56:06.000Z,80.21
2024-05-09T03:57:05.000Z,80.26
2024-05-09T03:58:07.000Z,80.16
2024-05-09T03:59:05.000Z,80.32
2024-05-09T04:00:07.000Z,80.17
2024-05-09T04:01:05.000Z,80.49
2024-05-09T04:02:05.000Z,80.10
2024-05-09T04:03:06.000Z,80.05
2024-05-09T04:04:07.000Z,80.75
2024-05-09T04:05:05.000Z,80.56
2024-05-09T04:06:06.000Z,80.37
2024-05-09T04:07:06.000Z,80.22
2024-05-09T04:08:06.000Z,80.47
2024-05-09T04:09:05.000Z,80.33
2024-05-09T04:10:06.000Z,80.34
2024-05-09T04:11:05.000Z,80.66
2024-05-09T04:12:06.000Z,80.28
2024-05-09T04:13:05.000Z,80.34
2024-05-09T04:14:05.000Z,80.66
2024-05-09T04:15:06.000Z,80.97
2024-05-09T04:16:08.000Z,80.53
2024-05-09T04:17:06.000Z,80.72
2024-05-09T04:18:06.000Z,80.61
2024-05-09T04:19:06.000Z,80.32
2024-05-09T04:20:06.000Z,80.31
2024-05-09T04:21:06.000Z,80.47
2024-05-09T04:22:06.000Z,80.57
2024-05-09T04:23:10.000Z,80.36
2024-05-09T04:24:06.000Z,80.30
2024-05-09T04:25:06.000Z,80.27
2024-05-09T04:26:07.000Z,80.28
2024-05-09T04:27:05.000Z,80.36
2024-05-09T04:28:06.000Z,80.33
2024-05-09T04:29:06.000Z,80.47
2024-05-09T04:30:06.000Z,80.48
2024-05-09T04:31:05.000Z,80.60
2024-05-09T04:32:06.000Z,80.69
2024-05-09T04:33:06.000Z,80.56
2024-05-09T04:34:05.000Z,80.39
2024-05-09T04:35:05.000Z,81.19
2024-05-09T04:36:05.000Z,81.34
2024-05-09T04:37:05.000Z,80.94
2024-05-09T04:38:06.000Z,80.75
2024-05-09T04:39:05.000Z,80.85
2024-05-09T04:40:06.000Z,81.11
2024-05-09T04:41:05.000Z,80.88
2024-05-09T04:42:05.000Z,80.74
2024-05-09T04:43:12.000Z,80.68
2024-05-09T04:44:05.000Z,80.64
2024-05-09T04:45:05.000Z,80.60
2024-05-09T04:46:05.000Z,80.81
2024-05-09T04:47:05.000Z,81.49
2024-05-09T04:48:06.000Z,81.00
2024-05-09T04:49:05.000Z,81.03
2024-05-09T04:50:05.000Z,80.80
2024-05-09T04:51:05.000Z,80.77
2024-05-09T04:52:05.000Z,80.76
2024-05-09T04:53:06.000Z,80.95
2024-05-09T04:54:05.000Z,81.17
2024-05-09T04:55:05.000Z,80.99
2024-05-09T04:56:05.000Z,80.88
2024-05-09T04:57:05.000Z,81.03
2024-05-09T04:58:08.000Z,81.07
2024-05-09T04:59:05.000Z,80.97
2024-05-09T05:00:06.000Z,80.90
2024-05-09T05:01:05.000Z,81.20
2024-05-09T05:02:05.000Z,81.71
2024-05-09T05:03:06.000Z,81.23
2024-05-09T05:04:05.000Z,81.26
2024-05-09T05:05:05.000Z,81.21
2024-05-09T05:06:06.000Z,81.11
2024-05-09T05:07:05.000Z,81.21
2024-05-09T05:08:14.000Z,81.17
2024-05-09T05:09:05.000Z,80.91
2024-05-09T05:10:06.000Z,81.07
2024-05-09T05:11:05.000Z,81.04
2024-05-09T05:12:20.000Z,81.17
2024-05-09T05:13:10.000Z,81.43
2024-05-09T05:14:05.000Z,81.52
2024-05-09T05:15:06.000Z,81.46
2024-05-09T05:16:05.000Z,81.30
2024-05-09T05:17:05.000Z,81.20
2024-05-09T05:18:05.000Z,81.58
2024-05-09T05:19:05.000Z,81.32
2024-05-09T05:20:06.000Z,81.19
2024-05-09T05:21:05.000Z,81.55
2024-05-09T05:22:05.000Z,81.43
2024-05-09T05:23:09.000Z,81.42
2024-05-09T05:24:05.000Z,81.33
2024-05-09T05:25:05.000Z,81.48
2024-05-09T05:26:05.000Z,81.32
2024-05-09T05:27:05.000Z,81.34
2024-05-09T05:28:06.000Z,81.61
2024-05-09T05:29:05.000Z,81.43
2024-05-09T05:30:06.000Z,81.97
2024-05-09T05:31:05.000Z,81.55
2024-05-09T05:32:05.000Z,81.45
2024-05-09T05:33:08.000Z,81.58
2024-05-09T05:34:05.000Z,81.50
2024-05-09T05:35:05.000Z,81.58
2024-05-09T05:36:06.000Z,81.62
2024-05-09T05:37:05.000Z,81.76
2024-05-09T05:38:06.000Z,81.51
2024-05-09T05:39:05.000Z,81.44
2024-05-09T05:40:06.000Z,81.40
2024-05-09T05:41:05.000Z,81.48
2024-05-09T05:42:05.000Z,81.41
2024-05-09T05:43:14.000Z,81.71
2024-05-09T05:44:05.000Z,81.58
2024-05-09T05:45:06.000Z,81.58
2024-05-09T05:46:05.000Z,81.75
2024-05-09T05:47:05.000Z,82.00
2024-05-09T05:48:06.000Z,81.63
2024-05-09T05:49:05.000Z,81.80
2024-05-09T05:50:05.000Z,81.87
2024-05-09T05:51:06.000Z,82.17
2024-05-09T05:52:05.000Z,82.17
2024-05-09T05:53:05.000Z,82.00
2024-05-09T05:54:05.000Z,82.27
2024-05-09T05:55:05.000Z,83.02
2024-05-09T05:56:06.000Z,82.38
2024-05-09T05:57:05.000Z,82.39
2024-05-09T05:58:09.000Z,82.23
2024-05-09T05:59:05.000Z,82.16
2024-05-09T06:00:06.000Z,82.68
2024-05-09T06:01:05.000Z,82.40
2024-05-09T06:02:06.000Z,83.24
2024-05-09T06:03:06.000Z,82.84
2024-05-09T06:04:05.000Z,82.97
2024-05-09T06:05:06.000Z,83.29
2024-05-09T06:06:06.000Z,82.70
2024-05-09T06:07:06.000Z,82.62
2024-05-09T06:08:06.000Z,82.91
2024-05-09T06:09:06.000Z,83.34
2024-05-09T06:10:06.000Z,83.01
2024-05-09T06:11:06.000Z,82.69
2024-05-09T06:12:06.000Z,82.86
2024-05-09T06:13:07.000Z,82.91
2024-05-09T06:14:06.000Z,82.95
2024-05-09T06:15:06.000Z,83.07
2024-05-09T06:16:06.000Z,83.20
2024-05-09T06:17:06.000Z,83.23
2024-05-09T06:18:07.000Z,82.89
2024-05-09T06:19:06.000Z,82.70
2024-05-09T06:20:06.000Z,82.83
2024-05-09T06:21:06.000Z,82.46
2024-05-09T06:22:08.000Z,82.86
2024-05-09T06:23:06.000Z,82.95
2024-05-09T06:24:06.000Z,82.52
2024-05-09T06:25:06.000Z,82.64
2024-05-09T06:26:06.000Z,82.82
2024-05-09T06:27:06.000Z,82.64
2024-05-09T06:28:06.000Z,82.53
2024-05-09T06:29:06.000Z,82.73
2024-05-09T06:30:06.000Z,82.44
2024-05-09T06:31:06.000Z,82.44
2024-05-09T06:32:06.000Z,82.81
2024-05-09T06:33:07.000Z,82.54
2024-05-09T06:34:05.000Z,82.94
2024-05-09T06:35:06.000Z,82.98
2024-05-09T06:36:06.000Z,83.36
2024-05-09T06:37:06.000Z,83.39
2024-05-09T06:38:07.000Z,83.32
2024-05-09T06:39:06.000Z,83.42
2024-05-09T06:40:06.000Z,83.28
2024-05-09T06:41:06.000Z,83.05
2024-05-09T06:42:06.000Z,83.17
2024-05-09T06:43:13.000Z,83.34
2024-05-09T06:44:06.000Z,82.91
2024-05-09T06:45:06.000Z,82.75
2024-05-09T06:46:06.000Z,82.84
2024-05-09T06:47:06.000Z,82.86
2024-05-09T06:48:07.000Z,83.19
2024-05-09T06:49:08.000Z,82.90
2024-05-09T06:50:06.000Z,82.61
2024-05-09T06:51:06.000Z,82.58
2024-05-09T06:52:06.000Z,82.79
2024-05-09T06:53:06.000Z,82.41
2024-05-09T06:54:06.000Z,82.50
2024-05-09T06:55:06.000Z,82.62
2024-05-09T06:56:06.000Z,82.33
2024-05-09T06:57:06.000Z,82.58
2024-05-09T06:58:06.000Z,82.67
2024-05-09T06:59:06.000Z,82.62
2024-05-09T07:00:07.000Z,82.10
2024-05-09T07:01:06.000Z,83.03
2024-05-09T07:02:06.000Z,83.39
2024-05-09T07:03:10.000Z,83.39
2024-05-09T07:04:06.000Z,83.04
2024-05-09T07:05:06.000Z,82.96
2024-05-09T07:06:06.000Z,82.69
2024-05-09T07:07:08.000Z,82.60
2024-05-09T07:08:06.000Z,82.47
2024-05-09T07:09:06.000Z,82.38
2024-05-09T07:10:06.000Z,81.90
2024-05-09T07:11:06.000Z,81.17
2024-05-09T07:12:06.000Z,81.45
2024-05-09T07:13:10.000Z,81.74
2024-05-09T07:14:06.000Z,81.41
2024-05-09T07:15:06.000Z,81.18
2024-05-09T07:16:06.000Z,81.02
2024-05-09T07:17:06.000Z,80.96
2024-05-09T07:18:11.000Z,81.27
2024-05-09T07:19:06.000Z,81.69
2024-05-09T07:20:06.000Z,81.40
2024-05-09T07:21:07.000Z,80.50
2024-05-09T07:22:05.000Z,79.83
2024-05-09T07:23:09.000Z,79.61
2024-05-09T07:24:05.000Z,80.05
2024-05-09T07:25:06.000Z,80.05
2024-05-09T07:26:06.000Z,80.14
2024-05-09T07:27:06.000Z,79.44
2024-05-09T07:28:23.000Z,79.09
2024-05-09T07:29:05.000Z,78.92
2024-05-09T07:30:07.000Z,78.91
2024-05-09T07:31:05.000Z,79.15
2024-05-09T07:32:06.000Z,78.71
2024-05-09T07:33:06.000Z,78.10
2024-05-09T07:34:06.000Z,78.45
2024-05-09T07:35:05.000Z,78.69
2024-05-09T07:36:06.000Z,78.22
2024-05-09T07:37:12.000Z,77.25
2024-05-09T07:38:05.000Z,77.00
2024-05-09T07:39:05.000Z,77.56
2024-05-09T07:40:07.000Z,77.88
2024-05-09T07:41:05.000Z,78.32
2024-05-09T07:42:06.000Z,78.26
2024-05-09T07:43:06.000Z,78.25
2024-05-09T07:44:05.000Z,78.56
2024-05-09T07:45:06.000Z,79.13
2024-05-09T07:46:06.000Z,79.12
2024-05-09T07:46:06.000Z,79.12
2024-05-09T07:46:06.000Z,79.12
2024-05-09T07:46:06.000Z,79.12
2024-05-09T07:46:06.000Z,79.12
2024-05-09T07:46:06.000Z,79.12
2024-05-09T07:46:06.000Z,79.12
2024-05-09T07:46:06.000Z,79.12
2024-05-09T07:46:06.000Z,79.12
2024-05-09T07:47:38.000Z,78.49
2024-05-09T07:47:38.000Z,78.49
2024-05-09T07:47:38.000Z,78.49
2024-05-09T07:47:38.000Z,78.49
2024-05-09T07:47:38.000Z,78.49
2024-05-09T07:47:38.000Z,78.49
2024-05-09T07:47:38.000Z,78.49
2024-05-09T07:48:35.000Z,78.61
2024-05-09T07:48:35.000Z,78.61
2024-05-09T07:48:35.000Z,78.61
2024-05-09T07:48:35.000Z,78.61
2024-05-09T07:48:35.000Z,78.61
2024-05-09T07:49:35.000Z,78.51
2024-05-09T07:49:35.000Z,78.51
2024-05-09T07:49:35.000Z,78.51
2024-05-09T07:49:35.000Z,78.51
2024-05-09T07:54:05.000Z,77.44
2024-05-09T07:55:06.000Z,76.42
2024-05-09T07:56:06.000Z,77.09
2024-05-09T07:57:05.000Z,77.30
2024-05-09T07:58:05.000Z,77.08
2024-05-09T07:59:06.000Z,74.55
2024-05-09T08:00:06.000Z,73.87
2024-05-09T08:01:05.000Z,71.89
2024-05-09T08:02:06.000Z,71.62
2024-05-09T08:03:06.000Z,71.63
2024-05-09T08:04:05.000Z,71.42
2024-05-09T08:05:06.000Z,71.91
2024-05-09T08:06:05.000Z,71.93
2024-05-09T08:07:05.000Z,73.02
2024-05-09T08:08:06.000Z,73.32
2024-05-09T08:09:05.000Z,72.93
2024-05-09T08:10:06.000Z,73.18
2024-05-09T08:11:05.000Z,72.47
2024-05-09T08:12:11.000Z,73.46
2024-05-09T08:13:05.000Z,70.33
2024-05-09T08:14:05.000Z,69.77
2024-05-09T08:15:06.000Z,71.47
2024-05-09T08:16:06.000Z,71.88
2024-05-09T08:17:05.000Z,72.25
2024-05-09T08:18:06.000Z,71.94
2024-05-09T08:19:05.000Z,71.10
2024-05-09T08:20:06.000Z,70.30
2024-05-09T08:21:05.000Z,69.67
2024-05-09T08:22:06.000Z,70.13
2024-05-09T08:23:06.000Z,70.48
2024-05-09T08:24:05.000Z,69.62
2024-05-09T08:25:05.000Z,70.66
2024-05-09T08:26:06.000Z,70.12
2024-05-09T08:27:05.000Z,70.06
2024-05-09T08:28:05.000Z,68.98
2024-05-09T08:29:05.000Z,66.36
2024-05-09T08:30:06.000Z,66.62
2024-05-09T08:31:05.000Z,67.03
2024-05-09T08:32:06.000Z,66.09
2024-05-09T08:33:05.000Z,64.43
2024-05-09T08:34:05.000Z,64.44
2024-05-09T08:35:06.000Z,64.53
2024-05-09T08:36:05.000Z,65.12
2024-05-09T08:37:05.000Z,64.45
2024-05-09T08:38:05.000Z,64.02
2024-05-09T08:39:05.000Z,63.12
2024-05-09T08:40:06.000Z,63.25
2024-05-09T08:41:05.000Z,65.00
2024-05-09T08:42:06.000Z,64.70
2024-05-09T08:43:07.000Z,65.34
2024-05-09T08:44:05.000Z,65.61
2024-05-09T08:45:06.000Z,65.10
2024-05-09T08:46:07.000Z,63.57
2024-05-09T08:47:08.000Z,64.05
2024-05-09T08:48:06.000Z,64.04
2024-05-09T08:49:05.000Z,65.57
2024-05-09T08:50:06.000Z,63.84
2024-05-09T08:51:05.000Z,63.45
2024-05-09T08:52:06.000Z,63.77
2024-05-09T08:53:06.000Z,62.61
2024-05-09T08:54:05.000Z,61.34
2024-05-09T08:55:06.000Z,61.21
2024-05-09T08:56:08.000Z,60.31
2024-05-09T08:57:06.000Z,61.36
2024-05-09T08:58:07.000Z,62.26
2024-05-09T08:59:09.000Z,60.49
2024-05-09T09:00:06.000Z,59.53
2024-05-09T09:01:06.000Z,60.20
2024-05-09T09:02:11.000Z,60.10
2024-05-09T09:03:07.000Z,59.28
2024-05-09T09:04:08.000Z,58.66
2024-05-09T09:05:09.000Z,59.06
2024-05-09T09:06:09.000Z,57.00
2024-05-09T09:07:05.000Z,57.45
2024-05-09T09:08:06.000Z,57.60
2024-05-09T09:09:07.000Z,57.57
2024-05-09T09:10:06.000Z,55.46
2024-05-09T09:11:05.000Z,57.40
2024-05-09T09:12:06.000Z,57.06
2024-05-09T09:13:07.000Z,58.29
2024-05-09T09:14:05.000Z,58.55
2024-05-09T09:15:05.000Z,58.76
2024-05-09T09:16:06.000Z,58.60
2024-05-09T09:17:14.000Z,59.75
2024-05-09T09:18:05.000Z,57.83
2024-05-09T09:19:05.000Z,56.98
2024-05-09T09:20:06.000Z,56.84
2024-05-09T09:21:09.000Z,57.79
2024-05-09T09:22:05.000Z,56.72
2024-05-09T09:23:06.000Z,57.50
2024-05-09T09:24:07.000Z,56.65
2024-05-09T09:25:06.000Z,54.86
2024-05-09T09:26:05.000Z,55.79
2024-05-09T09:27:06.000Z,55.88
2024-05-09T09:28:06.000Z,56.19
2024-05-09T09:29:05.000Z,55.78
2024-05-09T09:30:06.000Z,54.70
2024-05-09T09:31:05.000Z,55.02
2024-05-09T09:32:07.000Z,54.78
2024-05-09T09:33:08.000Z,54.69
2024-05-09T09:34:07.000Z,54.73
2024-05-09T09:35:06.000Z,54.70
2024-05-09T09:36:06.000Z,53.96
2024-05-09T09:37:07.000Z,54.24
2024-05-09T09:38:06.000Z,55.50
2024-05-09T09:39:06.000Z,53.96
2024-05-09T09:40:08.000Z,54.46
2024-05-09T09:41:07.000Z,53.99
2024-05-09T09:42:06.000Z,53.88
2024-05-09T09:43:12.000Z,54.15
2024-05-09T09:44:07.000Z,53.73
2024-05-09T09:45:06.000Z,54.43
2024-05-09T09:46:07.000Z,53.74
2024-05-09T09:47:07.000Z,53.08
2024-05-09T09:48:07.000Z,54.40
2024-05-09T09:49:06.000Z,52.95
2024-05-09T09:50:06.000Z,52.90
2024-05-09T09:51:06.000Z,52.43
2024-05-09T09:52:06.000Z,52.65
2024-05-09T09:53:06.000Z,51.69
2024-05-09T09:54:07.000Z,52.51
2024-05-09T09:55:08.000Z,52.45
2024-05-09T09:56:08.000Z,52.66
2024-05-09T09:57:05.000Z,52.71
2024-05-09T09:58:05.000Z,51.71
2024-05-09T09:59:08.000Z,51.56
2024-05-09T10:00:08.000Z,51.54
2024-05-09T10:01:05.000Z,51.26
2024-05-09T10:02:05.000Z,52.41
2024-05-09T10:03:05.000Z,52.22
2024-05-09T10:04:06.000Z,53.93
2024-05-09T10:05:06.000Z,53.91
2024-05-09T10:06:07.000Z,53.82
2024-05-09T10:07:07.000Z,52.49
2024-05-09T10:08:07.000Z,48.92
2024-05-09T10:09:06.000Z,47.41
2024-05-09T10:10:06.000Z,48.71
2024-05-09T10:11:05.000Z,50.71
2024-05-09T10:12:11.000Z,50.92
2024-05-09T10:13:06.000Z,49.20
2024-05-09T10:14:08.000Z,49.52
2024-05-09T10:15:09.000Z,48.17
2024-05-09T10:16:08.000Z,47.95
2024-05-09T10:17:05.000Z,48.35
2024-05-09T10:18:05.000Z,47.71
2024-05-09T10:19:05.000Z,47.33
2024-05-09T10:20:06.000Z,47.53
2024-05-09T10:21:13.000Z,48.78
2024-05-09T10:22:07.000Z,49.23
2024-05-09T10:23:24.000Z,48.14
2024-05-09T10:24:05.000Z,47.61
2024-05-09T10:25:06.000Z,47.61
2024-05-09T10:26:05.000Z,46.71
2024-05-09T10:27:05.000Z,47.34
2024-05-09T10:28:10.000Z,48.70
2024-05-09T10:29:13.000Z,48.83
2024-05-09T10:30:06.000Z,49.27
2024-05-09T10:31:10.000Z,49.18
2024-05-09T10:32:06.000Z,50.13
2024-05-09T10:33:09.000Z,49.50
2024-05-09T10:34:05.000Z,47.82
2024-05-09T10:35:07.000Z,47.62
2024-05-09T10:36:16.000Z,47.11
2024-05-09T10:37:05.000Z,47.22
2024-05-09T10:38:06.000Z,48.02
2024-05-09T10:39:05.000Z,45.52
2024-05-09T10:40:06.000Z,47.30
2024-05-09T10:41:06.000Z,46.31
2024-05-09T10:42:08.000Z,47.46
2024-05-09T10:43:05.000Z,47.58
2024-05-09T10:44:14.000Z,46.79
2024-05-09T10:45:06.000Z,47.71
2024-05-09T10:46:05.000Z,47.64
2024-05-09T10:47:05.000Z,47.52
2024-05-09T10:48:06.000Z,47.55
2024-05-09T10:49:06.000Z,47.19
2024-05-09T10:50:05.000Z,47.04
2024-05-09T10:51:06.000Z,48.46
2024-05-09T10:52:06.000Z,48.76
2024-05-09T10:53:05.000Z,46.79
2024-05-09T10:54:09.000Z,48.24
2024-05-09T10:55:05.000Z,48.53
2024-05-09T10:56:05.000Z,46.84
2024-05-09T10:57:05.000Z,47.28
2024-05-09T10:58:15.000Z,46.70
2024-05-09T10:59:05.000Z,47.23
2024-05-09T11:00:06.000Z,45.31
2024-05-09T11:01:06.000Z,44.48
2024-05-09T11:02:06.000Z,44.17
2024-05-09T11:03:09.000Z,45.19
2024-05-09T11:04:06.000Z,43.67
2024-05-09T11:05:07.000Z,44.59
2024-05-09T11:06:05.000Z,44.50
2024-05-09T11:07:11.000Z,45.20
2024-05-09T11:08:05.000Z,45.51
2024-05-09T11:09:05.000Z,44.91
2024-05-09T11:10:06.000Z,45.43
2024-05-09T11:11:06.000Z,45.52
2024-05-09T11:12:05.000Z,45.31
2024-05-09T11:13:05.000Z,44.93
2024-05-09T11:14:10.000Z,44.98
2024-05-09T11:15:05.000Z,44.57
2024-05-09T11:16:15.000Z,44.23
2024-05-09T11:17:06.000Z,44.23
2024-05-09T11:18:05.000Z,43.95
2024-05-09T11:19:12.000Z,43.71
2024-05-09T11:20:05.000Z,45.01
2024-05-09T11:21:10.000Z,45.21
2024-05-09T11:22:05.000Z,44.58
2024-05-09T11:23:05.000Z,44.68
2024-05-09T11:24:05.000Z,45.81
2024-05-09T11:25:06.000Z,44.40
2024-05-09T11:26:05.000Z,44.30
2024-05-09T11:27:05.000Z,44.52
2024-05-09T11:28:05.000Z,44.84
2024-05-09T11:29:05.000Z,44.74
2024-05-09T11:30:15.000Z,44.94
2024-05-09T11:31:08.000Z,45.03
2024-05-09T11:32:06.000Z,44.17
2024-05-09T11:33:09.000Z,44.52
2024-05-09T11:34:05.000Z,45.37
2024-05-09T11:35:05.000Z,44.48
2024-05-09T11:36:06.000Z,43.18
2024-05-09T11:37:05.000Z,43.27
2024-05-09T11:38:05.000Z,44.60
2024-05-09T11:39:05.000Z,43.92
2024-05-09T11:40:06.000Z,44.67
2024-05-09T11:41:05.000Z,43.44
2024-05-09T11:42:05.000Z,43.20
2024-05-09T11:43:05.000Z,41.89
2024-05-09T11:44:05.000Z,42.56
2024-05-09T11:45:06.000Z,42.67
2024-05-09T11:46:05.000Z,43.23
2024-05-09T11:47:05.000Z,43.57
2024-05-09T11:48:06.000Z,43.08
2024-05-09T11:49:06.000Z,43.05
2024-05-09T11:50:05.000Z,42.78
2024-05-09T11:51:05.000Z,43.26
2024-05-09T11:52:05.000Z,43.52
2024-05-09T11:53:05.000Z,43.08
2024-05-09T11:54:05.000Z,43.44
2024-05-09T11:55:06.000Z,44.26
2024-05-09T11:56:06.000Z,43.63
2024-05-09T11:57:05.000Z,43.06
2024-05-09T11:58:05.000Z,42.98
2024-05-09T11:59:05.000Z,43.99
2024-05-09T12:00:06.000Z,43.41
2024-05-09T12:01:05.000Z,43.41
2024-05-09T12:02:05.000Z,44.04
2024-05-09T12:03:05.000Z,43.57
2024-05-09T12:04:05.000Z,44.85
2024-05-09T12:05:05.000Z,42.63
2024-05-09T12:06:05.000Z,43.35
2024-05-09T12:07:05.000Z,42.76
2024-05-09T12:08:06.000Z,43.02
2024-05-09T12:09:05.000Z,41.59
2024-05-09T12:10:06.000Z,41.04
2024-05-09T12:11:05.000Z,42.19
2024-05-09T12:12:05.000Z,41.65
2024-05-09T12:13:05.000Z,40.77
2024-05-09T12:14:06.000Z,41.60
2024-05-09T12:15:06.000Z,43.26
2024-05-09T12:16:05.000Z,40.92
2024-05-09T12:17:05.000Z,42.27
2024-05-09T12:18:05.000Z,42.19
2024-05-09T12:19:05.000Z,42.04
2024-05-09T12:20:06.000Z,42.45
2024-05-09T12:21:05.000Z,42.16
2024-05-09T12:22:05.000Z,42.21
2024-05-09T12:23:06.000Z,42.19
2024-05-09T12:24:05.000Z,43.70
2024-05-09T12:25:06.000Z,42.74
2024-05-09T12:26:05.000Z,43.23
2024-05-09T12:27:05.000Z,43.32
2024-05-09T12:28:06.000Z,42.22
2024-05-09T12:29:05.000Z,41.49
2024-05-09T12:30:08.000Z,41.49
2024-05-09T12:31:05.000Z,42.72
2024-05-09T12:32:05.000Z,42.36
2024-05-09T12:33:09.000Z,41.27
2024-05-09T12:34:05.000Z,42.07
2024-05-09T12:35:05.000Z,41.66